createdAt,value
2019-05-21T00:04:44.047Z,14.30
2019-05-21T00:09:48.435Z,14.20
2019-05-21T00:14:52.813Z,14.20
2019-05-21T00:19:57.137Z,14.20
2019-05-21T00:25:01.470Z,14.20
2019-05-21T00:31:00.875Z,14.20
2019-05-21T00:37:01.745Z,14.20
2019-05-21T00:42:05.269Z,14.20
2019-05-21T00:47:11.681Z,14.20
2019-05-21T00:52:16.081Z,14.20
2019-05-21T00:57:21.085Z,14.20
2019-05-21T01:02:25.398Z,14.20
2019-05-21T01:07:29.785Z,14.20
2019-05-21T01:12:34.177Z,14.20
2019-05-21T01:17:38.561Z,14.20
2019-05-21T01:22:42.887Z,14.20
2019-05-21T01:27:47.281Z,14.20
2019-05-21T01:32:51.676Z,14.20
2019-05-21T01:37:56.063Z,14.10
2019-05-21T01:43:03.184Z,14.20
2019-05-21T01:48:06.565Z,14.20
2019-05-21T01:53:10.953Z,14.20
2019-05-21T01:58:15.983Z,14.20
2019-05-21T02:03:23.831Z,14.20
2019-05-21T02:08:27.218Z,14.20
2019-05-21T02:13:31.537Z,14.20
2019-05-21T02:18:35.829Z,14.20
2019-05-21T02:23:40.136Z,14.20
2019-05-21T02:28:44.443Z,14.20
2019-05-21T02:33:48.894Z,14.20
2019-05-21T02:38:53.293Z,14.20
2019-05-21T02:43:57.723Z,14.20
2019-05-21T02:49:02.036Z,14.20
2019-05-21T02:54:06.424Z,14.20
2019-05-21T02:59:12.075Z,14.10
2019-05-21T03:04:16.475Z,14.10
2019-05-21T03:09:20.871Z,14.10
2019-05-21T03:14:25.251Z,14.10
2019-05-21T03:19:29.634Z,14.10
2019-05-21T03:24:35.857Z,14.10
2019-05-21T03:29:40.241Z,14.00
2019-05-21T03:34:44.690Z,14.00
2019-05-21T03:39:48.976Z,14.00
2019-05-21T03:44:59.944Z,14.00
2019-05-21T03:49:59.320Z,14.00
2019-05-21T03:55:03.998Z,14.00
2019-05-21T04:00:12.199Z,13.90
2019-05-21T04:05:21.228Z,14.00
2019-05-21T04:10:25.711Z,13.90
2019-05-21T04:15:30.599Z,13.90
2019-05-21T04:20:34.991Z,13.90
2019-05-21T04:25:39.321Z,13.80
2019-05-21T04:30:43.615Z,13.80
2019-05-21T04:35:51.140Z,13.80
2019-05-21T04:40:55.719Z,13.80
2019-05-21T04:46:00.036Z,13.70
2019-05-21T04:51:04.686Z,13.70
2019-05-21T04:56:09.024Z,13.70
2019-05-21T05:01:15.056Z,13.70
2019-05-21T05:06:19.366Z,13.60
2019-05-21T05:11:23.746Z,13.60
2019-05-21T05:16:28.144Z,13.60
2019-05-21T05:21:32.474Z,13.70
2019-05-21T05:26:36.773Z,13.70
2019-05-21T05:31:41.095Z,13.70
2019-05-21T05:36:45.491Z,13.70
2019-05-21T05:41:49.878Z,13.70
2019-05-21T05:46:54.258Z,13.70
2019-05-21T05:51:58.566Z,13.70
2019-05-21T05:57:02.957Z,13.70
2019-05-21T06:02:08.884Z,13.70
2019-05-21T06:07:13.205Z,13.70
2019-05-21T06:12:17.584Z,13.70
2019-05-21T06:17:21.979Z,13.70
2019-05-21T06:22:26.367Z,13.70
2019-05-21T06:27:30.691Z,13.70
2019-05-21T06:32:35.044Z,13.70
2019-05-21T06:37:39.385Z,13.70
2019-05-21T06:42:43.779Z,13.70
2019-05-21T06:47:48.173Z,13.70
2019-05-21T06:52:52.491Z,13.60
2019-05-21T06:57:56.875Z,13.70
2019-05-21T07:03:03.332Z,13.60
2019-05-21T07:08:07.714Z,13.60
2019-05-21T07:13:12.108Z,13.60
2019-05-21T07:18:16.724Z,13.70
2019-05-21T07:23:21.101Z,13.70
2019-05-21T07:28:25.496Z,13.70
2019-05-21T07:33:29.794Z,13.70
2019-05-21T07:38:50.216Z,13.70
2019-05-21T07:43:40.257Z,13.70
2019-05-21T07:48:45.186Z,13.70
2019-05-21T07:53:49.494Z,13.70
2019-05-21T07:58:53.874Z,13.80
2019-05-21T08:03:59.404Z,13.80
2019-05-21T08:09:13.295Z,13.80
2019-05-21T08:14:11.932Z,13.90
2019-05-21T08:19:16.243Z,13.90
2019-05-21T08:24:20.737Z,13.90
2019-05-21T08:29:25.378Z,13.90
2019-05-21T08:34:29.928Z,13.90
2019-05-21T08:39:34.387Z,13.90
2019-05-21T08:44:38.775Z,13.90
2019-05-21T08:49:44.306Z,13.90
2019-05-21T08:54:56.061Z,13.90
2019-05-21T08:59:58.628Z,13.90
2019-05-21T09:05:06.502Z,13.90
2019-05-21T09:10:11.959Z,14.00
2019-05-21T09:15:17.901Z,14.00
2019-05-21T09:20:22.583Z,14.00
2019-05-21T09:25:26.962Z,14.00
2019-05-21T09:30:31.371Z,14.00
2019-05-21T09:35:35.769Z,14.10
2019-05-21T09:40:40.402Z,14.10
2019-05-21T09:45:45.299Z,14.10
2019-05-21T09:50:49.606Z,14.10
2019-05-21T09:55:54.225Z,14.00
2019-05-21T10:01:12.474Z,14.10
2019-05-21T10:06:17.209Z,14.10
2019-05-21T10:11:21.599Z,14.10
2019-05-21T10:16:25.977Z,14.10
2019-05-21T10:21:30.640Z,14.10
2019-05-21T10:26:35.660Z,14.10
2019-05-21T10:31:40.059Z,14.20
2019-05-21T10:36:44.371Z,14.20
2019-05-21T10:41:48.905Z,14.30
2019-05-21T10:46:53.382Z,14.30
2019-05-21T10:51:57.881Z,14.30
2019-05-21T10:57:02.272Z,14.40
2019-05-21T11:02:17.596Z,14.30
2019-05-21T11:07:23.693Z,14.40
2019-05-21T11:12:28.312Z,14.40
2019-05-21T11:17:46.946Z,14.50
2019-05-21T11:22:39.021Z,14.50
2019-05-21T11:27:43.482Z,14.60
2019-05-21T11:32:48.164Z,14.60
2019-05-21T11:37:52.541Z,14.70
2019-05-21T11:42:56.922Z,14.90
2019-05-21T11:48:01.316Z,15.10
2019-05-21T11:53:05.732Z,15.20
2019-05-21T11:58:10.087Z,15.40
2019-05-21T12:03:14.735Z,15.40
2019-05-21T12:08:19.041Z,15.50
2019-05-21T12:13:23.615Z,15.60
2019-05-21T12:18:27.987Z,15.70
2019-05-21T12:23:32.401Z,15.70
2019-05-21T12:28:36.773Z,15.80
2019-05-21T12:33:41.234Z,15.80
2019-05-21T12:38:45.617Z,15.80
2019-05-21T12:43:50.007Z,15.90
2019-05-21T12:48:54.312Z,15.90
2019-05-21T12:53:58.623Z,15.90
2019-05-21T12:59:03.163Z,15.90
2019-05-21T13:04:07.754Z,15.90
2019-05-21T13:09:12.198Z,16.00
2019-05-21T13:14:18.890Z,16.00
2019-05-21T13:19:22.871Z,16.00
2019-05-21T13:24:27.286Z,16.10
2019-05-21T13:29:31.607Z,16.20
2019-05-21T13:34:36.210Z,16.20
2019-05-21T13:39:49.506Z,16.30
2019-05-21T13:44:46.578Z,16.40
2019-05-21T13:49:50.969Z,16.60
2019-05-21T13:54:55.538Z,16.70
2019-05-21T14:00:00.225Z,16.90
2019-05-21T14:05:05.644Z,17.00
2019-05-21T14:10:15.864Z,17.20
2019-05-21T14:15:16.562Z,17.30
2019-05-21T14:20:21.078Z,17.40
2019-05-21T14:25:25.455Z,17.40
2019-05-21T14:30:29.781Z,17.50
2019-05-21T14:35:34.170Z,17.50
2019-05-21T14:40:38.548Z,17.50
2019-05-21T14:45:42.849Z,17.50
2019-05-21T14:50:47.253Z,17.50
2019-05-21T14:55:51.654Z,17.50
2019-05-21T15:00:56.168Z,17.40
2019-05-21T15:06:00.553Z,17.40
2019-05-21T15:11:04.877Z,17.30
2019-05-21T15:16:09.552Z,17.30
2019-05-21T15:21:21.520Z,17.20
2019-05-21T15:26:25.896Z,17.20
2019-05-21T15:31:30.520Z,17.10
2019-05-21T15:36:34.906Z,17.10
2019-05-21T15:41:39.286Z,17.00
2019-05-21T15:46:49.510Z,17.00
2019-05-21T15:51:49.714Z,17.00
2019-05-21T15:56:54.110Z,17.00
2019-05-21T16:01:58.510Z,16.90
2019-05-21T16:07:02.953Z,16.90
2019-05-21T16:12:07.346Z,16.80
2019-05-21T16:17:11.654Z,16.80
2019-05-21T16:22:16.240Z,16.80
2019-05-21T16:27:20.546Z,16.80
2019-05-21T16:32:25.126Z,16.70
2019-05-21T16:37:29.511Z,16.70
2019-05-21T16:42:33.897Z,16.60
2019-05-21T16:47:45.959Z,16.60
2019-05-21T16:52:44.688Z,16.60
2019-05-21T16:57:49.077Z,16.50
2019-05-21T17:02:53.460Z,16.40
2019-05-21T17:07:57.844Z,16.30
2019-05-21T17:13:02.310Z,16.30
2019-05-21T17:18:06.683Z,16.30
2019-05-21T17:23:11.070Z,16.20
2019-05-21T17:28:15.482Z,16.10
2019-05-21T17:33:19.855Z,16.20
2019-05-21T17:38:24.753Z,16.10
2019-05-21T17:43:29.201Z,16.10
2019-05-21T17:48:33.516Z,16.10
2019-05-21T17:53:37.897Z,16.10
2019-05-21T17:58:42.297Z,16.00
2019-05-21T18:03:46.607Z,16.00
2019-05-21T18:08:51.583Z,16.00
2019-05-21T18:13:55.978Z,15.90
2019-05-21T18:19:00.977Z,15.90
2019-05-21T18:24:05.749Z,15.80
2019-05-21T18:29:10.210Z,15.80
2019-05-21T18:34:14.529Z,15.80
2019-05-21T18:39:19.743Z,15.70
2019-05-21T18:44:24.239Z,15.70
2019-05-21T18:49:28.576Z,15.60
2019-05-21T18:54:34.340Z,15.60
2019-05-21T18:59:39.400Z,15.60
2019-05-21T19:04:43.795Z,15.50
2019-05-21T19:09:48.311Z,15.50
2019-05-21T19:14:52.703Z,15.50
2019-05-21T19:19:57.089Z,15.40
2019-05-21T19:25:01.506Z,15.40
2019-05-21T19:30:10.572Z,15.30
2019-05-21T19:35:14.941Z,15.30
2019-05-21T19:40:19.326Z,15.30
2019-05-21T19:45:23.696Z,15.20
2019-05-21T19:50:28.191Z,15.10
2019-05-21T19:55:34.042Z,15.10
2019-05-21T20:00:40.105Z,15.10
2019-05-21T20:05:46.353Z,15.00
2019-05-21T20:10:53.654Z,15.00
2019-05-21T20:15:58.951Z,15.00
2019-05-21T20:21:06.599Z,14.90
2019-05-21T20:26:15.628Z,14.90
2019-05-21T20:31:20.317Z,14.80
2019-05-21T20:36:25.022Z,14.80
2019-05-21T20:41:30.824Z,14.80
2019-05-21T20:46:35.717Z,14.80
2019-05-21T20:51:43.324Z,14.80
2019-05-21T20:56:47.594Z,14.70
2019-05-21T21:01:52.265Z,14.70
2019-05-21T21:06:57.018Z,14.70
2019-05-21T21:12:01.416Z,14.70
2019-05-21T21:17:10.436Z,14.70
2019-05-21T21:22:14.917Z,14.70
2019-05-21T21:27:19.737Z,14.60
2019-05-21T21:32:24.056Z,14.60
2019-05-21T21:37:28.457Z,14.60
2019-05-21T21:42:33.128Z,14.60
2019-05-21T21:47:37.915Z,14.50
2019-05-21T21:52:42.373Z,14.50
2019-05-21T21:57:46.763Z,14.50
2019-05-21T22:02:51.144Z,14.50
2019-05-21T22:07:55.621Z,14.40
2019-05-21T22:13:00.248Z,14.30
2019-05-21T22:18:05.296Z,14.30
2019-05-21T22:23:09.881Z,14.30
2019-05-21T22:28:14.416Z,14.20
2019-05-21T22:33:19.512Z,14.20
2019-05-21T22:38:32.298Z,14.20
2019-05-21T22:43:35.991Z,14.20
2019-05-21T22:48:40.299Z,14.20
2019-05-21T22:53:44.830Z,14.10
2019-05-21T22:58:49.149Z,14.10
2019-05-21T23:03:55.585Z,14.10
2019-05-21T23:08:59.890Z,14.10
2019-05-21T23:14:04.933Z,14.10
2019-05-21T23:19:11.341Z,14.10
2019-05-21T23:24:18.356Z,14.10
2019-05-21T23:29:24.124Z,14.10
2019-05-21T23:34:28.955Z,14.00
2019-05-21T23:39:34.843Z,14.00
2019-05-21T23:44:39.394Z,14.00
2019-05-21T23:49:44.031Z,14.00
2019-05-21T23:54:48.348Z,14.00
2019-05-21T23:59:53.171Z,14.00
